Canyon City, Oregon
Current Conditions -  °F | °C
As of 10:35 PM on Friday 24 Oct 2014 (Local Time) from KGCD Reporting Station
Clear Clear  
Wind Chill: 50°   Ceiling: Unl
Heat Index: 50°   Visibility: 10mi
Dew Point: 44°   Wind: 0mph
Humidity: 81%   Direction: NA
Pressure: 29.87"   Gusts: NA
Location:  44.39°N, 118.95°W
Report Text: KGCD 250535Z AUTO 00000KT 10SM CLR 10/07 A2987 RMK AO2 T00980067
Loading
Personal Weather Stations






























Interactive Weather Map New forecast layout! Learn more

10-Day Weather Forecast

Advertisements
Track Severe Weather on mobile